createdAt,value
2022-12-27T00:00:02.045Z,20.50
2022-12-27T00:02:29.310Z,20.40
2022-12-27T00:04:56.479Z,20.40
2022-12-27T00:07:23.556Z,20.50
2022-12-27T00:09:53.804Z,20.50
2022-12-27T00:12:20.917Z,20.50
2022-12-27T00:14:47.975Z,20.50
2022-12-27T00:17:15.046Z,20.40
2022-12-27T00:19:42.125Z,20.40
2022-12-27T00:22:09.222Z,20.40
2022-12-27T00:24:36.322Z,20.40
2022-12-27T00:27:03.418Z,20.40
2022-12-27T00:29:30.552Z,20.40
2022-12-27T00:31:57.684Z,20.40
2022-12-27T00:34:24.864Z,20.40
2022-12-27T00:36:52.031Z,20.40
2022-12-27T00:39:19.119Z,20.40
2022-12-27T00:41:46.385Z,20.40
2022-12-27T00:44:13.509Z,20.40
2022-12-27T00:46:40.635Z,20.40
2022-12-27T00:49:07.706Z,20.40
2022-12-27T00:51:34.777Z,20.40
2022-12-27T00:54:01.908Z,20.40
2022-12-27T00:56:30.581Z,20.40
2022-12-27T00:59:01.545Z,20.40
2022-12-27T01:01:30.973Z,20.40
2022-12-27T01:03:58.895Z,20.40
2022-12-27T01:06:32.300Z,20.40
2022-12-27T01:09:01.229Z,20.40
2022-12-27T01:11:29.482Z,20.40
2022-12-27T01:13:58.675Z,20.40
2022-12-27T01:16:26.583Z,20.40
2022-12-27T01:18:54.094Z,20.40
2022-12-27T01:21:23.302Z,20.40
2022-12-27T01:23:50.725Z,20.40
2022-12-27T01:26:20.680Z,20.40
2022-12-27T01:28:49.201Z,20.40
2022-12-27T01:31:21.368Z,20.40
2022-12-27T01:33:49.107Z,20.40
2022-12-27T01:36:21.486Z,20.30
2022-12-27T01:38:49.386Z,20.40
2022-12-27T01:41:41.562Z,20.40
2022-12-27T01:44:49.872Z,20.30
2022-12-27T01:47:46.567Z,20.30
2022-12-27T01:50:35.067Z,20.30
2022-12-27T01:53:12.068Z,20.30
2022-12-27T01:55:47.431Z,20.30
2022-12-27T01:58:24.819Z,20.40
2022-12-27T02:00:52.900Z,20.30
2022-12-27T02:03:29.272Z,20.30
2022-12-27T02:05:58.380Z,20.40
2022-12-27T02:08:59.651Z,20.40
2022-12-27T02:11:50.392Z,20.40
2022-12-27T02:14:32.766Z,20.30
2022-12-27T02:17:03.525Z,20.40
2022-12-27T02:19:51.003Z,20.40
2022-12-27T02:23:12.928Z,20.40
2022-12-27T02:26:08.322Z,20.40
2022-12-27T02:29:04.236Z,20.40
2022-12-27T02:32:11.022Z,20.40
2022-12-27T02:34:57.551Z,20.40
2022-12-27T02:37:29.443Z,20.40
2022-12-27T02:40:18.620Z,20.40
2022-12-27T02:43:06.982Z,20.40
2022-12-27T02:45:58.845Z,20.30
2022-12-27T02:48:45.844Z,20.40
2022-12-27T02:51:50.659Z,20.30
2022-12-27T02:54:52.268Z,20.30
2022-12-27T02:57:54.493Z,20.30
2022-12-27T03:00:44.677Z,20.30
2022-12-27T03:03:38.356Z,20.30
2022-12-27T03:06:42.425Z,20.30
2022-12-27T03:10:02.750Z,20.30
2022-12-27T03:13:14.303Z,20.30
2022-12-27T03:15:56.490Z,20.30
2022-12-27T03:18:41.489Z,20.30
2022-12-27T03:21:28.783Z,20.30
2022-12-27T03:24:18.390Z,20.30
2022-12-27T03:26:49.105Z,20.30
2022-12-27T03:29:39.755Z,20.30
2022-12-27T03:32:29.106Z,20.30
2022-12-27T03:35:10.666Z,20.30
2022-12-27T03:38:00.693Z,20.30
2022-12-27T03:41:07.332Z,20.30
2022-12-27T03:43:36.499Z,20.30
2022-12-27T03:46:35.714Z,20.30
2022-12-27T03:49:23.735Z,20.30
2022-12-27T03:52:16.581Z,20.30
2022-12-27T03:54:47.877Z,20.30
2022-12-27T03:57:17.238Z,20.30
2022-12-27T03:59:44.974Z,20.30
2022-12-27T04:02:12.623Z,20.30
2022-12-27T04:04:39.947Z,20.30
2022-12-27T04:07:07.371Z,20.30
2022-12-27T04:09:54.332Z,20.30
2022-12-27T04:12:41.287Z,20.30
2022-12-27T04:15:28.536Z,20.30
2022-12-27T04:18:15.589Z,20.30
2022-12-27T04:21:02.551Z,20.30
2022-12-27T04:23:49.587Z,20.30
2022-12-27T04:26:36.615Z,20.30
2022-12-27T04:29:23.750Z,20.30
2022-12-27T04:32:10.722Z,20.30
2022-12-27T04:34:44.102Z,20.30
2022-12-27T04:37:17.001Z,20.30
2022-12-27T04:40:05.572Z,20.30
2022-12-27T04:42:52.613Z,20.30
2022-12-27T04:45:39.832Z,20.30
2022-12-27T04:48:33.208Z,20.30
2022-12-27T04:51:20.977Z,20.30
2022-12-27T04:54:07.895Z,20.30
2022-12-27T04:56:34.970Z,20.30
2022-12-27T04:59:21.877Z,20.30
2022-12-27T05:02:05.045Z,20.30
2022-12-27T05:04:34.983Z,20.30
2022-12-27T05:07:22.365Z,20.30
2022-12-27T05:10:09.624Z,20.30
2022-12-27T05:12:56.597Z,20.30
2022-12-27T05:15:23.676Z,20.30
2022-12-27T05:17:50.813Z,20.30
2022-12-27T05:20:17.973Z,20.30
2022-12-27T05:23:04.897Z,20.30
2022-12-27T05:25:34.973Z,20.30
2022-12-27T05:28:03.077Z,20.30
2022-12-27T05:30:32.390Z,20.30
2022-12-27T05:32:59.537Z,20.30
2022-12-27T05:35:26.694Z,20.30
2022-12-27T05:37:55.433Z,20.20
2022-12-27T05:40:23.834Z,20.30
2022-12-27T05:42:51.467Z,20.30
2022-12-27T05:45:19.482Z,20.30
2022-12-27T05:47:46.585Z,20.20
2022-12-27T05:50:13.690Z,20.20
2022-12-27T05:52:41.516Z,20.30
2022-12-27T05:55:09.252Z,20.30
2022-12-27T05:57:36.679Z,20.30
2022-12-27T06:00:05.884Z,20.30
2022-12-27T06:02:33.195Z,20.30
2022-12-27T06:05:00.408Z,20.30
2022-12-27T06:07:27.511Z,20.30
2022-12-27T06:09:54.511Z,20.30
2022-12-27T06:12:21.578Z,20.30
2022-12-27T06:14:48.670Z,20.40
2022-12-27T06:17:15.793Z,20.30
2022-12-27T06:19:42.854Z,20.40
2022-12-27T06:22:09.913Z,20.40
2022-12-27T06:24:37.075Z,20.40
2022-12-27T06:27:04.245Z,20.50
2022-12-27T06:29:31.390Z,20.50
2022-12-27T06:31:58.565Z,20.50
2022-12-27T06:34:25.734Z,20.50
2022-12-27T06:36:52.819Z,20.50
2022-12-27T06:39:20.176Z,20.50
2022-12-27T06:41:47.289Z,20.50
2022-12-27T06:44:14.392Z,20.50
2022-12-27T06:46:41.515Z,20.60
2022-12-27T06:49:10.735Z,20.60
2022-12-27T06:51:37.849Z,20.60
2022-12-27T06:54:04.964Z,20.60
2022-12-27T06:56:32.004Z,20.60
2022-12-27T06:58:59.079Z,20.60
2022-12-27T07:01:28.199Z,20.70
2022-12-27T07:03:58.154Z,20.70
2022-12-27T07:06:26.815Z,20.70
2022-12-27T07:08:54.601Z,20.70
2022-12-27T07:11:23.272Z,20.70
2022-12-27T07:13:53.055Z,20.70
2022-12-27T07:16:22.846Z,20.70
2022-12-27T07:18:50.383Z,20.70
2022-12-27T07:21:20.963Z,20.80
2022-12-27T07:23:48.105Z,20.70
2022-12-27T07:26:17.813Z,20.80
2022-12-27T07:28:45.373Z,20.80
2022-12-27T07:31:18.538Z,20.80
2022-12-27T07:33:46.494Z,20.80
2022-12-27T07:36:20.376Z,20.80
2022-12-27T07:38:48.189Z,20.80
2022-12-27T07:41:15.417Z,20.80
2022-12-27T07:43:44.404Z,20.90
2022-12-27T07:46:15.247Z,20.90
2022-12-27T07:48:42.808Z,20.90
2022-12-27T07:51:11.255Z,20.90
2022-12-27T07:53:38.898Z,21.00
2022-12-27T07:56:08.439Z,21.00
2022-12-27T07:58:40.559Z,21.00
2022-12-27T08:01:09.207Z,21.00
2022-12-27T08:03:36.832Z,21.00
2022-12-27T08:06:04.791Z,21.00
2022-12-27T08:08:39.757Z,21.10
2022-12-27T08:11:07.305Z,21.10
2022-12-27T08:13:34.854Z,21.10
2022-12-27T08:16:02.721Z,21.10
2022-12-27T08:18:30.366Z,21.10
2022-12-27T08:20:57.443Z,21.20
2022-12-27T08:23:24.473Z,21.20
2022-12-27T08:25:51.567Z,21.20
2022-12-27T08:28:19.133Z,21.30
2022-12-27T08:30:47.341Z,21.30
2022-12-27T08:33:19.418Z,21.40
2022-12-27T08:35:54.824Z,21.30
2022-12-27T08:38:22.445Z,21.40
2022-12-27T08:40:49.506Z,21.40
2022-12-27T08:43:16.631Z,21.50
2022-12-27T08:45:43.781Z,21.50
2022-12-27T08:48:10.876Z,21.60
2022-12-27T08:50:38.035Z,21.60
2022-12-27T08:53:06.246Z,21.60
2022-12-27T08:55:34.039Z,21.70
2022-12-27T08:58:09.353Z,21.70
2022-12-27T09:00:41.041Z,21.70
2022-12-27T09:03:09.707Z,21.80
2022-12-27T09:05:41.714Z,21.80
2022-12-27T09:08:09.682Z,21.80
2022-12-27T09:10:36.997Z,21.80
2022-12-27T09:13:04.352Z,21.90
2022-12-27T09:15:31.536Z,21.90
2022-12-27T09:17:58.680Z,21.90
2022-12-27T09:20:25.721Z,21.90
2022-12-27T09:22:52.763Z,21.90
2022-12-27T09:25:21.221Z,21.90
2022-12-27T09:27:48.397Z,21.90
2022-12-27T09:30:15.532Z,21.90
2022-12-27T09:32:43.642Z,21.90
2022-12-27T09:35:10.695Z,21.90
2022-12-27T09:37:37.798Z,22.00
2022-12-27T09:40:05.946Z,22.00
2022-12-27T09:43:06.178Z,22.00
2022-12-27T09:45:46.727Z,22.00
2022-12-27T09:48:38.519Z,22.00
2022-12-27T09:51:27.102Z,22.00
2022-12-27T09:54:03.420Z,22.00
2022-12-27T09:57:01.760Z,22.10
2022-12-27T09:59:36.188Z,22.10
2022-12-27T10:02:04.799Z,22.10
2022-12-27T10:05:10.050Z,22.10
2022-12-27T10:07:50.431Z,22.10
2022-12-27T10:10:38.458Z,22.10
2022-12-27T10:13:38.473Z,22.20
2022-12-27T10:16:25.768Z,22.20
2022-12-27T10:19:15.589Z,22.20
2022-12-27T10:22:10.022Z,22.20
2022-12-27T10:24:49.295Z,22.20
2022-12-27T10:27:25.399Z,22.20
2022-12-27T10:29:57.667Z,22.20
2022-12-27T10:32:25.074Z,22.20
2022-12-27T10:34:56.814Z,22.20
2022-12-27T10:37:24.716Z,22.20
2022-12-27T10:39:51.802Z,22.20
2022-12-27T10:42:39.981Z,22.20
2022-12-27T10:45:28.332Z,22.20
2022-12-27T10:47:58.658Z,22.20
2022-12-27T10:50:28.809Z,22.20
2022-12-27T10:52:57.889Z,22.10
2022-12-27T10:55:39.451Z,22.10
2022-12-27T10:58:36.098Z,22.20
2022-12-27T11:01:03.291Z,22.20
2022-12-27T11:03:31.200Z,22.10
2022-12-27T11:06:03.116Z,22.10
2022-12-27T11:08:31.086Z,22.10
2022-12-27T11:11:23.205Z,22.10
2022-12-27T11:13:51.291Z,22.10
2022-12-27T11:16:31.206Z,22.10
2022-12-27T11:19:00.470Z,22.10
2022-12-27T11:21:29.486Z,22.10
2022-12-27T11:24:02.394Z,22.10
2022-12-27T11:26:34.132Z,22.10
2022-12-27T11:29:03.155Z,22.10
2022-12-27T11:31:40.386Z,22.10
2022-12-27T11:34:21.309Z,22.10
2022-12-27T11:36:53.364Z,22.10
2022-12-27T11:39:45.112Z,22.10
2022-12-27T11:42:38.639Z,22.10
2022-12-27T11:45:30.739Z,22.10
2022-12-27T11:48:14.831Z,22.20
2022-12-27T11:51:11.108Z,22.10
2022-12-27T11:54:10.612Z,22.10
2022-12-27T11:56:42.949Z,22.10
2022-12-27T11:59:49.741Z,22.10
2022-12-27T12:03:07.219Z,22.10
2022-12-27T12:06:02.304Z,22.00
2022-12-27T12:08:55.380Z,22.00
2022-12-27T12:11:43.273Z,22.00
2022-12-27T12:14:45.431Z,22.00
2022-12-27T12:17:52.246Z,22.00
2022-12-27T12:20:56.542Z,22.00
2022-12-27T12:23:57.064Z,22.00
2022-12-27T12:26:31.053Z,22.00
2022-12-27T12:29:25.752Z,22.00
2022-12-27T12:32:29.969Z,22.00
2022-12-27T12:35:34.868Z,22.00
2022-12-27T12:38:20.238Z,22.00
2022-12-27T12:41:24.992Z,22.00
2022-12-27T12:44:34.063Z,22.00
2022-12-27T12:47:44.541Z,22.10
2022-12-27T12:50:48.151Z,22.10
2022-12-27T12:53:45.649Z,22.10
2022-12-27T12:56:42.997Z,22.20
2022-12-27T12:59:49.799Z,22.10
2022-12-27T13:02:54.248Z,22.20
2022-12-27T13:05:41.676Z,22.20
2022-12-27T13:08:35.812Z,22.20
2022-12-27T13:11:33.152Z,22.20
2022-12-27T13:14:18.100Z,22.20
2022-12-27T13:17:10.721Z,22.20
2022-12-27T13:20:02.219Z,22.20
2022-12-27T13:22:56.750Z,22.20
2022-12-27T13:26:03.541Z,22.20
2022-12-27T13:28:57.223Z,22.20
2022-12-27T13:31:53.273Z,22.20
2022-12-27T13:35:00.120Z,22.20
2022-12-27T13:37:52.972Z,22.20
2022-12-27T13:40:49.599Z,22.20
2022-12-27T13:43:51.217Z,22.20
2022-12-27T13:46:45.529Z,22.20
2022-12-27T13:49:49.659Z,22.20
2022-12-27T13:52:47.386Z,22.20
2022-12-27T13:55:44.489Z,22.20
2022-12-27T13:58:56.211Z,22.20
2022-12-27T14:01:49.350Z,22.20
2022-12-27T14:04:34.317Z,22.20
2022-12-27T14:07:38.158Z,22.20
2022-12-27T14:10:31.561Z,22.20
2022-12-27T14:13:09.898Z,22.20
2022-12-27T14:16:16.643Z,22.10
